Impacts METAR Board
IDs:

KDEN - Denver Intl, CO, US

Updated at: 2200 UTC 15 Oct 2018
Potential Impact None Slight Moderate High
Time 15/10Z 15/11Z 15/12Z 15/13Z 15/14Z 15/15Z 15/16Z 15/17Z 15/18Z 15/19Z 15/20Z 15/21Z 15/22Z
Temp20 19 19 19 21 25 30 34 38 42 44 47 46
Dewpt15 14 13 13 14 17 20 18 17 15 8 5 7
Altim30.32 30.31 30.32 30.32 30.32 30.34 30.34 30.34 30.34 30.33 30.31 30.31 30.31
VIS10 10 10 10 10 10 10 10 10 10 10 10 10
CIG-- -- -- -- -- -- -- -- -- -- -- -- --
CoverCLRCLRCLRCLRFEWFEWFEWFEWFEWFEWFEWFEWFEW
FltCatVFRVFRVFRVFRVFRVFRVFRVFRVFRVFRVFRVFRVFR
WX--------------------------
WDir220220230220210210210180170210033030
WSpd10 10 9 9 11 11 8 7 7 4 0 9 7
WGst-- -- -- -- -- -- -- -- -- -- -- -- --
Raw hourly METARs
KDEN 150953Z 22010KT 10SM CLR M07/M09 A3032 RMK AO2 SLP307 T10671094
KDEN 151053Z 22010KT 10SM CLR M07/M10 A3031 RMK AO2 SLP305 T10721100
KDEN 151153Z 23009KT 10SM CLR M07/M11 A3032 RMK AO2 SLP307 70008 T10721106 11056 21078 55002
KDEN 151253Z 22009KT 10SM CLR M07/M11 A3032 RMK AO2 SLP308 T10721106
KDEN 151353Z 21011KT 10SM FEW110 M06/M10 A3032 RMK AO2 SLP305 T10611100
KDEN 151453Z 21011KT 10SM FEW120 M04/M08 A3034 RMK AO2 SLP307 T10391083 53006
KDEN 151553Z 21008KT 10SM FEW120 M01/M07 A3034 RMK AO2 SLP306 T10111067
KDEN 151653Z 18007KT 10SM FEW120 01/M08 A3034 RMK AO2 SLP298 T00111078
KDEN 151753Z 17007KT 10SM FEW120 03/M08 A3034 RMK AO2 SLP294 T00331083 10033 21078 50001
KDEN 151853Z 21004KT 10SM FEW120 06/M09 A3033 RMK AO2 SLP285 T00561094
KDEN 151953Z 00000KT 10SM FEW110 07/M13 A3031 RMK AO2 SLP279 T00671133
KDEN 152053Z 33009KT 10SM FEW110 08/M15 A3031 RMK AO2 SLP275 T00831150 56009
KDEN 152153Z 03007KT 10SM FEW110 08/M14 A3031 RMK AO2 SLP276 T00781139



Page loaded:  22:13 UTC  |   03:13 PM Pacific  |   04:13 PM Mountain  |   05:13 PM Central  |   06:13 PM Eastern

 

ADVISORIES

FORECASTS

FORECASTS

OBSERVATIONS

USER TOOLS

ABOUT US